Alize — OR6256 — position and weather

sailwx.info

Track history (hours):
 
Tides and Currents Weather Stations Pressure Air Temp Water Temp Dewpoint Dewpoint Depression Visibility Wind Speed Wind Dir Waves Ship Positions

Alize

Last reported at 2017-Aug-25 16:30 UTC. Time now 2017-Nov-18 01:08 UTC.
Position N 47°43' W 003°22'.
Warning: this ship's position is months out of date.

Length 20 m.

Type: Pleasure craft. MMSI: 205625610.

Date/timePositionNaut miles runAvg speedWind from/ knotsBaromVisibWave heightAir tempDewpointWater temp
2017-Aug-25 16:30N 47°43' W 003°22'1 1.2
2017-Aug-25 16:00N 47°43' W 003°22'3 5.0
2017-Aug-25 15:30N 47°41' W 003°25'3 5.1
2017-Aug-25 15:00N 47°42' W 003°28'59 1.2
2017-Aug-23 13:30N 48°03' W 004°51'2 3.1
2017-Aug-23 12:48N 48°05' W 004°52'3 3.6
2017-Aug-23 11:53N 48°08' W 004°54'4 4.1
2017-Aug-23 10:53N 48°11' W 004°57'4 4.1
2017-Aug-23 09:53N 48°15' W 005°00'7 0.3
2017-Aug-22 12:53N 48°22' W 005°04'6 5.8
2017-Aug-22 11:53N 48°18' W 004°57'6 6.5
2017-Aug-22 10:58N 48°15' W 004°49'3 6.3
2017-Aug-22 10:30N 48°14' W 004°45'2 4.5
2017-Aug-22 10:00N 48°13' W 004°42'2 3.9
2017-Aug-22 09:30N 48°12' W 004°39'2 3.1
2017-Aug-22 09:00N 48°11' W 004°38'4 3.6
2017-Aug-22 07:53N 48°10' W 004°32'2 2.5
2017-Aug-22 06:58N 48°12' W 004°31'  
2017-Aug-18 17:53N 48°14' W 004°29'3 3.6
2017-Aug-18 17:01N 48°11' W 004°27'0 3.5
2017-Aug-18 16:53N 48°10' W 004°26'1 3.4
2017-Aug-18 16:29N 48°09' W 004°25'2 3.4
2017-Aug-18 15:58N 48°08' W 004°23'3 0.1
2017-Aug-16 18:38N 48°06' W 004°20'2 2.8
2017-Aug-16 18:00N 48°07' W 004°22'3 5.0
2017-Aug-16 17:28N 48°07' W 004°26'4 7.1
2017-Aug-16 16:58N 48°07' W 004°31'5 7.6
2017-Aug-16 16:22N 48°06' W 004°38'3 9.0
2017-Aug-16 16:00N 48°04' W 004°43'3 6.3
2017-Aug-16 15:29N 48°02' W 004°46'  
Track history (hours):
 
Tides and Currents Weather Stations Pressure Air Temp Water Temp Dewpoint Dewpoint Depression Visibility Wind Speed Wind Dir Waves Ship Positions

Alize

Last reported at 2017-Aug-25 16:30 UTC. Time now 2017-Nov-18 01:08 UTC.
Position N 47°43' W 003°22'.
Warning: this ship's position is months out of date.

Length 20 m.

Type: Pleasure craft. MMSI: 205625610.

Date/timePositionNaut miles runAvg speedWind from/ knotsBaromVisibWave heightAir tempDewpointWater temp
2017-Aug-25 16:30N 47°43' W 003°22'1 1.2
2017-Aug-25 16:00N 47°43' W 003°22'3 5.0
2017-Aug-25 15:30N 47°41' W 003°25'3 5.1
2017-Aug-25 15:00N 47°42' W 003°28'59 1.2
2017-Aug-23 13:30N 48°03' W 004°51'2 3.1
2017-Aug-23 12:48N 48°05' W 004°52'3 3.6
2017-Aug-23 11:53N 48°08' W 004°54'4 4.1
2017-Aug-23 10:53N 48°11' W 004°57'4 4.1
2017-Aug-23 09:53N 48°15' W 005°00'7 0.3
2017-Aug-22 12:53N 48°22' W 005°04'6 5.8
2017-Aug-22 11:53N 48°18' W 004°57'6 6.5
2017-Aug-22 10:58N 48°15' W 004°49'3 6.3
2017-Aug-22 10:30N 48°14' W 004°45'2 4.5
2017-Aug-22 10:00N 48°13' W 004°42'2 3.9
2017-Aug-22 09:30N 48°12' W 004°39'2 3.1
2017-Aug-22 09:00N 48°11' W 004°38'4 3.6
2017-Aug-22 07:53N 48°10' W 004°32'2 2.5
2017-Aug-22 06:58N 48°12' W 004°31'  
2017-Aug-18 17:53N 48°14' W 004°29'3 3.6
2017-Aug-18 17:01N 48°11' W 004°27'0 3.5
2017-Aug-18 16:53N 48°10' W 004°26'1 3.4
2017-Aug-18 16:29N 48°09' W 004°25'2 3.4
2017-Aug-18 15:58N 48°08' W 004°23'3 0.1
2017-Aug-16 18:38N 48°06' W 004°20'2 2.8
2017-Aug-16 18:00N 48°07' W 004°22'3 5.0
2017-Aug-16 17:28N 48°07' W 004°26'4 7.1
2017-Aug-16 16:58N 48°07' W 004°31'5 7.6
2017-Aug-16 16:22N 48°06' W 004°38'3 9.0
2017-Aug-16 16:00N 48°04' W 004°43'3 6.3
2017-Aug-16 15:29N 48°02' W 004°46'  

Dump ship's entire track history